createdAt,value
2022-12-13T00:00:40.298Z,-4.35
2022-12-13T00:05:47.267Z,-4.31
2022-12-13T00:11:00.913Z,-4.33
2022-12-13T00:16:05.679Z,-4.27
2022-12-13T00:21:13.978Z,-4.45
2022-12-13T00:26:19.581Z,-4.47
2022-12-13T00:36:48.623Z,-4.62
2022-12-13T00:41:51.835Z,-4.60
2022-12-13T00:46:54.656Z,-4.61
2022-12-13T00:52:00.136Z,-4.68
2022-12-13T00:57:02.875Z,-4.69
2022-12-13T01:02:05.639Z,-4.68
2022-12-13T01:07:09.774Z,-4.67
2022-12-13T01:12:12.641Z,-4.97
2022-12-13T01:17:15.396Z,-5.02
2022-12-13T01:29:08.624Z,-5.05
2022-12-13T01:34:13.360Z,-5.06
2022-12-13T01:39:19.617Z,-5.14
2022-12-13T01:45:00.754Z,-5.23
2022-12-13T01:50:08.150Z,-5.10
2022-12-13T01:55:13.150Z,-5.12
2022-12-13T02:00:18.895Z,-5.00
2022-12-13T02:05:27.067Z,-5.00
2022-12-13T02:10:30.730Z,-5.09
2022-12-13T02:15:45.819Z,-5.11
2022-12-13T02:21:05.400Z,-5.05
2022-12-13T02:26:31.867Z,-4.97
2022-12-13T02:31:46.932Z,-4.88
2022-12-13T02:36:57.572Z,-4.82
2022-12-13T02:42:06.176Z,-4.83
2022-12-13T02:47:21.981Z,-4.95
2022-12-13T02:52:27.701Z,-5.01
2022-12-13T02:57:33.344Z,-5.15
2022-12-13T03:02:45.925Z,-4.97
2022-12-13T03:08:02.451Z,-4.88
2022-12-13T03:13:29.029Z,-4.85
2022-12-13T03:18:35.801Z,-4.89
2022-12-13T03:23:39.633Z,-4.94
2022-12-13T03:28:42.556Z,-5.02
2022-12-13T03:33:47.321Z,-5.15
2022-12-13T03:38:52.460Z,-5.31
2022-12-13T03:43:55.324Z,-5.32
2022-12-13T03:48:59.643Z,-5.34
2022-12-13T03:54:02.485Z,-5.29
2022-12-13T03:59:05.393Z,-5.29
2022-12-13T04:04:09.598Z,-5.22
2022-12-13T04:09:12.455Z,-5.27
2022-12-13T04:14:22.706Z,-5.32
2022-12-13T04:19:27.344Z,-5.39
2022-12-13T04:24:31.288Z,-5.42
2022-12-13T04:29:35.196Z,-5.63
2022-12-13T04:34:39.418Z,-5.65
2022-12-13T04:39:47.780Z,-5.70
2022-12-13T04:44:51.047Z,-5.63
2022-12-13T04:49:55.271Z,-5.68
2022-12-13T04:54:58.148Z,-5.71
2022-12-13T05:00:00.978Z,-5.82
2022-12-13T05:05:05.578Z,-5.83
2022-12-13T05:10:09.218Z,-5.85
2022-12-13T05:15:12.257Z,-5.79
2022-12-13T05:20:16.545Z,-5.84
2022-12-13T05:25:19.351Z,-5.83
2022-12-13T05:30:22.178Z,-5.84
2022-12-13T05:35:26.436Z,-5.89
2022-12-13T05:40:31.710Z,-5.91
2022-12-13T05:45:34.604Z,-5.97
2022-12-13T05:50:39.251Z,-5.92
2022-12-13T05:55:42.548Z,-5.96
2022-12-13T06:00:45.830Z,-6.05
2022-12-13T06:05:50.041Z,-6.12
2022-12-13T06:10:55.583Z,-6.12
2022-12-13T06:16:23.104Z,-6.09
2022-12-13T06:21:31.172Z,-6.03
2022-12-13T06:26:46.573Z,-6.11
2022-12-13T06:31:49.714Z,-6.33
2022-12-13T06:36:53.931Z,-6.21
2022-12-13T06:41:56.786Z,-6.09
2022-12-13T06:47:11.839Z,-6.12
2022-12-13T06:52:17.023Z,-6.11
2022-12-13T06:57:19.831Z,-6.18
2022-12-13T07:02:25.106Z,-6.09
2022-12-13T07:07:30.970Z,-5.98
2022-12-13T07:12:33.896Z,-5.91
2022-12-13T07:17:36.799Z,-5.79
2022-12-13T07:22:47.266Z,-5.79
2022-12-13T07:28:01.303Z,-5.84
2022-12-13T07:33:06.510Z,-5.76
2022-12-13T07:38:12.110Z,-5.73
2022-12-13T07:43:15.968Z,-5.63
2022-12-13T07:48:19.108Z,-4.79
2022-12-13T07:53:23.342Z,-4.32
2022-12-13T07:58:26.173Z,-4.04
2022-12-13T08:03:29.805Z,-4.01
2022-12-13T08:08:35.093Z,-3.67
2022-12-13T08:13:38.641Z,-3.49
2022-12-13T08:18:41.715Z,-3.41
2022-12-13T08:23:45.910Z,-3.50
2022-12-13T08:28:48.885Z,-3.56
2022-12-13T08:33:53.265Z,-3.25
2022-12-13T08:39:02.798Z,-3.12
2022-12-13T08:44:05.815Z,-2.96
2022-12-13T08:49:11.709Z,-2.89
2022-12-13T08:54:31.463Z,-2.90
2022-12-13T08:59:34.730Z,-2.70
2022-12-13T09:04:37.550Z,-2.34
2022-12-13T09:09:41.722Z,-2.13
2022-12-13T09:14:45.220Z,-2.51
2022-12-13T09:19:49.378Z,-2.24
2022-12-13T09:24:53.600Z,-2.22
2022-12-13T09:30:07.988Z,-2.15
2022-12-13T09:35:11.027Z,-1.97
2022-12-13T09:40:25.934Z,-1.95
2022-12-13T09:45:31.884Z,-1.98
2022-12-13T09:50:38.511Z,-1.94
2022-12-13T09:55:46.189Z,-1.52
2022-12-13T10:00:52.431Z,-1.36
2022-12-13T10:05:59.837Z,-1.00
2022-12-13T10:11:04.781Z,-0.73
2022-12-13T10:16:13.008Z,-0.53
2022-12-13T10:21:39.801Z,-0.63
2022-12-13T10:26:44.390Z,-0.03
2022-12-13T10:31:50.115Z,0.22
2022-12-13T10:36:53.510Z,0.83
2022-12-13T10:42:06.831Z,0.96
2022-12-13T10:47:18.053Z,1.12
2022-12-13T10:52:31.116Z,2.05
2022-12-13T10:57:36.046Z,2.86
2022-12-13T11:02:41.763Z,3.25
2022-12-13T11:07:44.802Z,3.01
2022-12-13T11:12:50.888Z,3.55
2022-12-13T11:17:57.284Z,3.71
2022-12-13T11:23:05.719Z,3.96
2022-12-13T11:28:27.243Z,3.77
2022-12-13T11:33:47.582Z,2.87
2022-12-13T11:39:04.351Z,3.37
2022-12-13T11:44:17.761Z,3.49
2022-12-13T11:49:33.433Z,3.59
2022-12-13T11:54:45.326Z,3.69
2022-12-13T11:59:54.304Z,3.94
2022-12-13T12:05:12.581Z,3.75
2022-12-13T12:10:30.463Z,3.52
2022-12-13T12:15:42.426Z,3.10
2022-12-13T12:20:59.491Z,3.18
2022-12-13T12:26:07.673Z,3.16
2022-12-13T12:31:19.146Z,2.53
2022-12-13T12:36:38.447Z,2.35
2022-12-13T12:42:00.222Z,2.11
2022-12-13T12:47:38.213Z,2.20
2022-12-13T12:52:52.556Z,2.09
2022-12-13T12:58:02.823Z,1.88
2022-12-13T13:03:22.657Z,2.11
2022-12-13T13:08:30.381Z,2.28
2022-12-13T13:13:46.693Z,2.37
2022-12-13T13:18:52.533Z,1.97
2022-12-13T13:24:07.741Z,2.06
2022-12-13T13:29:43.381Z,1.75
2022-12-13T13:34:49.563Z,1.49
2022-12-13T13:39:58.866Z,1.19
2022-12-13T13:45:23.496Z,1.22
2022-12-13T13:51:02.137Z,1.03
2022-12-13T13:56:22.553Z,1.06
2022-12-13T14:02:00.985Z,1.32
2022-12-13T14:07:29.369Z,0.45
2022-12-13T14:13:16.615Z,0.09
2022-12-13T14:19:05.724Z,-0.44
2022-12-13T14:24:20.383Z,-0.76
2022-12-13T14:29:29.238Z,-1.17
2022-12-13T14:34:34.692Z,-1.73
2022-12-13T14:39:38.345Z,-2.00
2022-12-13T14:44:41.190Z,-2.28
2022-12-13T14:49:50.625Z,-2.59
2022-12-13T14:54:57.977Z,-2.81
2022-12-13T15:00:03.903Z,-3.02
2022-12-13T15:05:28.361Z,-3.22
2022-12-13T15:10:40.032Z,-3.32
2022-12-13T15:15:42.897Z,-3.48
2022-12-13T15:20:48.695Z,-3.58
2022-12-13T15:26:00.117Z,-3.74
2022-12-13T15:31:04.985Z,-3.92
2022-12-13T15:36:14.878Z,-4.00
2022-12-13T15:41:19.456Z,-4.05
2022-12-13T15:46:27.214Z,-4.18
2022-12-13T15:51:31.900Z,-4.25
2022-12-13T15:56:37.153Z,-4.34
2022-12-13T16:01:40.056Z,-4.47
2022-12-13T16:06:52.677Z,-4.50
2022-12-13T16:11:58.175Z,-4.55
2022-12-13T16:17:08.313Z,-4.52
2022-12-13T16:22:13.007Z,-4.56
2022-12-13T16:27:15.900Z,-4.62
2022-12-13T16:32:18.831Z,-4.72
2022-12-13T16:37:27.467Z,-4.79
2022-12-13T16:42:31.499Z,-4.78
2022-12-13T16:47:43.166Z,-4.82
2022-12-13T16:52:52.555Z,-4.84
2022-12-13T16:57:59.910Z,-4.95
2022-12-13T17:03:02.724Z,-5.06
2022-12-13T17:08:07.432Z,-5.12
2022-12-13T17:13:10.825Z,-5.22
2022-12-13T17:18:14.061Z,-5.32
2022-12-13T17:23:19.302Z,-5.31
2022-12-13T17:28:22.130Z,-5.35
2022-12-13T17:33:26.062Z,-5.25
2022-12-13T17:38:30.465Z,-5.10
2022-12-13T17:43:35.190Z,-5.09
2022-12-13T17:48:41.005Z,-5.12
2022-12-13T17:53:45.900Z,-5.12
2022-12-13T17:58:49.133Z,-5.15
2022-12-13T18:03:54.056Z,-5.15
2022-12-13T18:08:58.325Z,-5.19
2022-12-13T18:14:01.300Z,-5.30
2022-12-13T18:19:06.213Z,-5.36
2022-12-13T18:24:11.643Z,-5.47
2022-12-13T18:29:14.462Z,-5.33
2022-12-13T18:34:18.493Z,-5.32
2022-12-13T18:39:22.940Z,-5.36
2022-12-13T18:44:28.242Z,-5.29
2022-12-13T18:49:31.071Z,-5.36
2022-12-13T18:54:35.371Z,-5.34
2022-12-13T18:59:38.193Z,-5.32
2022-12-13T19:04:41.125Z,-5.33
2022-12-13T19:09:59.373Z,-5.38
2022-12-13T19:15:02.392Z,-5.44
2022-12-13T19:20:06.099Z,-5.44
2022-12-13T19:25:11.064Z,-5.45
2022-12-13T19:30:14.555Z,-5.44
2022-12-13T19:35:17.699Z,-5.49
2022-12-13T19:40:22.093Z,-5.46
2022-12-13T19:45:24.976Z,-5.43
2022-12-13T19:50:28.976Z,-5.41
2022-12-13T19:55:34.024Z,-5.39
2022-12-13T20:00:36.924Z,-5.46
2022-12-13T20:05:45.514Z,-5.52
2022-12-13T20:10:50.092Z,-5.39
2022-12-13T20:15:53.032Z,-5.49
2022-12-13T20:21:11.808Z,-5.41
2022-12-13T20:26:19.877Z,-5.38
2022-12-13T20:31:24.582Z,-5.46
2022-12-13T20:36:29.055Z,-5.41
2022-12-13T20:41:35.605Z,-5.47
2022-12-13T20:46:38.523Z,-5.33
2022-12-13T20:51:42.121Z,-5.27
2022-12-13T20:56:46.407Z,-5.27
2022-12-13T21:01:49.549Z,-5.28
2022-12-13T21:06:52.617Z,-5.19
2022-12-13T21:11:57.803Z,-5.17
2022-12-13T21:17:02.010Z,-5.11
2022-12-13T21:22:05.034Z,-5.14
2022-12-13T21:27:09.195Z,-5.12
2022-12-13T21:32:12.033Z,-5.10
2022-12-13T21:37:16.516Z,-5.15
2022-12-13T21:42:20.722Z,-5.10
2022-12-13T21:47:23.739Z,-5.11
2022-12-13T21:52:37.509Z,-5.11
2022-12-13T21:58:01.838Z,-5.19
2022-12-13T22:03:07.323Z,-5.14
2022-12-13T22:08:10.140Z,-5.28
2022-12-13T22:13:14.338Z,-5.19
2022-12-13T22:18:17.177Z,-5.23
2022-12-13T22:23:20.017Z,-5.27
2022-12-13T22:28:24.566Z,-5.11
2022-12-13T22:33:27.666Z,-5.19
2022-12-13T22:38:30.787Z,-5.15
2022-12-13T22:43:36.618Z,-5.09
2022-12-13T22:48:40.149Z,-5.12
2022-12-13T22:53:44.485Z,-5.13
2022-12-13T22:58:53.114Z,-5.04
2022-12-13T23:03:56.118Z,-5.02
2022-12-13T23:09:00.649Z,-5.01
2022-12-13T23:14:07.528Z,-4.92
2022-12-13T23:24:35.777Z,-4.86
2022-12-13T23:29:39.997Z,-4.86
2022-12-13T23:34:42.882Z,-4.82
2022-12-13T23:39:45.839Z,-4.83
2022-12-13T23:44:50.023Z,-4.78
2022-12-13T23:49:52.926Z,-4.83
2022-12-13T23:54:55.761Z,-4.80
2022-12-13T23:59:59.943Z,-4.75
